sensor_id;sensor_type;location;lat;lon;timestamp;temperature;humidity
1461;DHT22;724;49.910;12.530;2023-10-31T00:00:01;10.50;1.00
1461;DHT22;724;49.910;12.530;2023-10-31T00:02:30;10.40;1.00
1461;DHT22;724;49.910;12.530;2023-10-31T00:04:58;10.40;99.90
1461;DHT22;724;49.910;12.530;2023-10-31T00:07:25;10.30;99.90
1461;DHT22;724;49.910;12.530;2023-10-31T00:09:51;10.20;99.90
1461;DHT22;724;49.910;12.530;2023-10-31T00:12:18;10.20;99.90
1461;DHT22;724;49.910;12.530;2023-10-31T00:14:45;10.10;99.90
1461;DHT22;724;49.910;12.530;2023-10-31T00:17:12;10.10;99.90
1461;DHT22;724;49.910;12.530;2023-10-31T00:19:39;10.10;99.90
1461;DHT22;724;49.910;12.530;2023-10-31T00:22:07;10.00;99.90
1461;DHT22;724;49.910;12.530;2023-10-31T00:24:34;10.00;99.90
1461;DHT22;724;49.910;12.530;2023-10-31T00:27:00;10.00;99.90
1461;DHT22;724;49.910;12.530;2023-10-31T00:29:27;10.00;99.90
1461;DHT22;724;49.910;12.530;2023-10-31T00:31:54;10.00;99.90
1461;DHT22;724;49.910;12.530;2023-10-31T00:34:21;9.90;99.90
1461;DHT22;724;49.910;12.530;2023-10-31T00:36:47;9.90;99.90
1461;DHT22;724;49.910;12.530;2023-10-31T00:39:15;9.90;99.90
1461;DHT22;724;49.910;12.530;2023-10-31T00:41:44;9.90;99.90
1461;DHT22;724;49.910;12.530;2023-10-31T00:44:11;9.90;99.90
1461;DHT22;724;49.910;12.530;2023-10-31T00:46:37;9.90;99.90
1461;DHT22;724;49.910;12.530;2023-10-31T00:49:04;9.90;99.90
1461;DHT22;724;49.910;12.530;2023-10-31T00:51:31;9.90;99.90
1461;DHT22;724;49.910;12.530;2023-10-31T00:53:58;9.80;99.90
1461;DHT22;724;49.910;12.530;2023-10-31T00:56:26;9.80;99.90
1461;DHT22;724;49.910;12.530;2023-10-31T00:58:53;9.80;99.90
1461;DHT22;724;49.910;12.530;2023-10-31T01:01:20;9.80;99.90
1461;DHT22;724;49.910;12.530;2023-10-31T01:03:46;9.80;99.90
1461;DHT22;724;49.910;12.530;2023-10-31T01:06:13;9.80;99.90
1461;DHT22;724;49.910;12.530;2023-10-31T01:08:40;9.80;99.90
1461;DHT22;724;49.910;12.530;2023-10-31T01:11:07;9.80;99.90
1461;DHT22;724;49.910;12.530;2023-10-31T01:13:35;9.80;99.90
1461;DHT22;724;49.910;12.530;2023-10-31T01:16:03;9.80;99.90
1461;DHT22;724;49.910;12.530;2023-10-31T01:18:30;9.80;99.90
1461;DHT22;724;49.910;12.530;2023-10-31T01:20:56;9.80;99.90
1461;DHT22;724;49.910;12.530;2023-10-31T01:23:23;9.80;99.90
1461;DHT22;724;49.910;12.530;2023-10-31T01:25:50;9.80;99.90
1461;DHT22;724;49.910;12.530;2023-10-31T01:28:16;9.80;99.90
1461;DHT22;724;49.910;12.530;2023-10-31T01:30:45;9.80;99.90
1461;DHT22;724;49.910;12.530;2023-10-31T01:33:11;9.80;99.90
1461;DHT22;724;49.910;12.530;2023-10-31T01:35:38;9.80;99.90
1461;DHT22;724;49.910;12.530;2023-10-31T01:38:05;9.80;99.90
1461;DHT22;724;49.910;12.530;2023-10-31T01:40:32;9.80;99.90
1461;DHT22;724;49.910;12.530;2023-10-31T01:42:58;9.80;99.90
1461;DHT22;724;49.910;12.530;2023-10-31T01:45:25;9.80;99.90
1461;DHT22;724;49.910;12.530;2023-10-31T01:47:53;9.80;99.90
1461;DHT22;724;49.910;12.530;2023-10-31T01:50:20;9.80;99.90
1461;DHT22;724;49.910;12.530;2023-10-31T01:52:48;9.80;99.90
1461;DHT22;724;49.910;12.530;2023-10-31T01:55:15;9.80;99.90
1461;DHT22;724;49.910;12.530;2023-10-31T01:57:43;9.80;99.90
1461;DHT22;724;49.910;12.530;2023-10-31T02:00:12;9.80;99.90
1461;DHT22;724;49.910;12.530;2023-10-31T02:02:40;9.80;99.90
1461;DHT22;724;49.910;12.530;2023-10-31T02:05:09;9.80;99.90
1461;DHT22;724;49.910;12.530;2023-10-31T02:07:36;9.80;99.90
1461;DHT22;724;49.910;12.530;2023-10-31T02:10:03;9.80;99.90
1461;DHT22;724;49.910;12.530;2023-10-31T02:12:34;9.80;99.90
1461;DHT22;724;49.910;12.530;2023-10-31T02:15:01;9.80;99.90
1461;DHT22;724;49.910;12.530;2023-10-31T02:17:29;9.80;99.90
1461;DHT22;724;49.910;12.530;2023-10-31T02:19:56;9.80;99.90
1461;DHT22;724;49.910;12.530;2023-10-31T02:22:24;9.80;99.90
1461;DHT22;724;49.910;12.530;2023-10-31T02:24:51;9.80;99.90
1461;DHT22;724;49.910;12.530;2023-10-31T02:27:17;9.80;99.90
1461;DHT22;724;49.910;12.530;2023-10-31T02:29:44;9.80;99.90
1461;DHT22;724;49.910;12.530;2023-10-31T02:32:11;9.80;99.90
1461;DHT22;724;49.910;12.530;2023-10-31T02:34:38;9.80;99.90
1461;DHT22;724;49.910;12.530;2023-10-31T02:37:05;9.70;99.90
1461;DHT22;724;49.910;12.530;2023-10-31T02:39:33;9.80;99.90
1461;DHT22;724;49.910;12.530;2023-10-31T02:42:00;9.70;99.90
1461;DHT22;724;49.910;12.530;2023-10-31T02:44:27;9.70;99.90
1461;DHT22;724;49.910;12.530;2023-10-31T02:46:54;9.70;99.90
1461;DHT22;724;49.910;12.530;2023-10-31T02:49:21;9.70;99.90
1461;DHT22;724;49.910;12.530;2023-10-31T02:51:47;9.70;99.90
1461;DHT22;724;49.910;12.530;2023-10-31T02:54:14;9.70;99.90
1461;DHT22;724;49.910;12.530;2023-10-31T02:56:42;9.70;99.90
1461;DHT22;724;49.910;12.530;2023-10-31T02:59:09;9.70;99.90
1461;DHT22;724;49.910;12.530;2023-10-31T03:01:36;9.70;99.90
1461;DHT22;724;49.910;12.530;2023-10-31T03:04:03;9.60;99.90
1461;DHT22;724;49.910;12.530;2023-10-31T03:06:29;9.60;99.90
1461;DHT22;724;49.910;12.530;2023-10-31T03:08:56;9.60;99.90
1461;DHT22;724;49.910;12.530;2023-10-31T03:11:24;9.60;99.90
1461;DHT22;724;49.910;12.530;2023-10-31T03:13:52;9.60;99.90
1461;DHT22;724;49.910;12.530;2023-10-31T03:16:19;9.60;99.90
1461;DHT22;724;49.910;12.530;2023-10-31T03:18:50;9.60;99.90
1461;DHT22;724;49.910;12.530;2023-10-31T03:21:17;9.60;99.90
1461;DHT22;724;49.910;12.530;2023-10-31T03:23:47;9.50;99.90
1461;DHT22;724;49.910;12.530;2023-10-31T03:26:15;9.50;99.90
1461;DHT22;724;49.910;12.530;2023-10-31T03:28:42;9.50;99.90
1461;DHT22;724;49.910;12.530;2023-10-31T03:31:11;9.50;99.90
1461;DHT22;724;49.910;12.530;2023-10-31T03:33:38;9.50;99.90
1461;DHT22;724;49.910;12.530;2023-10-31T03:36:05;9.50;99.90
1461;DHT22;724;49.910;12.530;2023-10-31T03:38:33;9.50;99.90
1461;DHT22;724;49.910;12.530;2023-10-31T03:41:03;9.50;99.90
1461;DHT22;724;49.910;12.530;2023-10-31T03:43:30;9.50;99.90
1461;DHT22;724;49.910;12.530;2023-10-31T03:45:57;9.50;99.90
1461;DHT22;724;49.910;12.530;2023-10-31T03:48:26;9.50;99.90
1461;DHT22;724;49.910;12.530;2023-10-31T03:50:53;9.50;99.90
1461;DHT22;724;49.910;12.530;2023-10-31T03:53:19;9.50;99.90
1461;DHT22;724;49.910;12.530;2023-10-31T03:55:46;9.40;99.90
1461;DHT22;724;49.910;12.530;2023-10-31T03:58:13;9.50;99.90
1461;DHT22;724;49.910;12.530;2023-10-31T04:00:40;9.40;99.90
1461;DHT22;724;49.910;12.530;2023-10-31T04:03:07;9.40;99.90
1461;DHT22;724;49.910;12.530;2023-10-31T04:05:35;9.40;99.90
1461;DHT22;724;49.910;12.530;2023-10-31T04:08:04;9.30;99.90
1461;DHT22;724;49.910;12.530;2023-10-31T04:10:31;9.20;99.90
1461;DHT22;724;49.910;12.530;2023-10-31T04:12:58;9.10;99.90
1461;DHT22;724;49.910;12.530;2023-10-31T04:15:25;9.10;99.90
1461;DHT22;724;49.910;12.530;2023-10-31T04:17:55;9.00;99.90
1461;DHT22;724;49.910;12.530;2023-10-31T04:20:21;9.00;99.90
1461;DHT22;724;49.910;12.530;2023-10-31T04:22:50;8.90;99.90
1461;DHT22;724;49.910;12.530;2023-10-31T04:25:17;9.00;99.90
1461;DHT22;724;49.910;12.530;2023-10-31T04:27:44;8.90;99.90
1461;DHT22;724;49.910;12.530;2023-10-31T04:30:11;8.80;99.90
1461;DHT22;724;49.910;12.530;2023-10-31T04:32:38;8.80;99.90
1461;DHT22;724;49.910;12.530;2023-10-31T04:35:05;8.80;99.90
1461;DHT22;724;49.910;12.530;2023-10-31T04:37:35;8.70;99.90
1461;DHT22;724;49.910;12.530;2023-10-31T04:40:03;8.70;99.90
1461;DHT22;724;49.910;12.530;2023-10-31T04:42:32;8.70;99.90
1461;DHT22;724;49.910;12.530;2023-10-31T04:44:59;8.70;99.90
1461;DHT22;724;49.910;12.530;2023-10-31T04:47:25;8.60;99.90
1461;DHT22;724;49.910;12.530;2023-10-31T04:49:52;8.70;99.90
1461;DHT22;724;49.910;12.530;2023-10-31T04:52:19;8.70;99.90
1461;DHT22;724;49.910;12.530;2023-10-31T04:54:48;8.60;99.90
1461;DHT22;724;49.910;12.530;2023-10-31T04:57:16;8.70;99.90
1461;DHT22;724;49.910;12.530;2023-10-31T04:59:43;8.70;99.90
1461;DHT22;724;49.910;12.530;2023-10-31T05:02:09;8.60;99.90
1461;DHT22;724;49.910;12.530;2023-10-31T05:04:38;8.60;99.90
1461;DHT22;724;49.910;12.530;2023-10-31T05:07:05;8.60;99.90
1461;DHT22;724;49.910;12.530;2023-10-31T05:09:32;8.60;99.90
1461;DHT22;724;49.910;12.530;2023-10-31T05:12:00;8.50;99.90
1461;DHT22;724;49.910;12.530;2023-10-31T05:14:28;8.50;99.90
1461;DHT22;724;49.910;12.530;2023-10-31T05:16:55;8.50;99.90
1461;DHT22;724;49.910;12.530;2023-10-31T05:19:22;8.50;99.90
1461;DHT22;724;49.910;12.530;2023-10-31T05:21:49;8.50;99.90
1461;DHT22;724;49.910;12.530;2023-10-31T05:24:16;8.50;99.90
1461;DHT22;724;49.910;12.530;2023-10-31T05:26:42;8.60;99.90
1461;DHT22;724;49.910;12.530;2023-10-31T05:29:17;8.40;99.90
1461;DHT22;724;49.910;12.530;2023-10-31T05:31:45;8.40;99.90
1461;DHT22;724;49.910;12.530;2023-10-31T05:34:12;8.40;99.90
1461;DHT22;724;49.910;12.530;2023-10-31T05:36:39;8.40;99.90
1461;DHT22;724;49.910;12.530;2023-10-31T05:39:06;8.40;99.90
1461;DHT22;724;49.910;12.530;2023-10-31T05:41:34;8.30;99.90
1461;DHT22;724;49.910;12.530;2023-10-31T05:44:00;8.30;99.90
1461;DHT22;724;49.910;12.530;2023-10-31T05:46:27;8.30;99.90
1461;DHT22;724;49.910;12.530;2023-10-31T05:48:56;8.30;99.90
1461;DHT22;724;49.910;12.530;2023-10-31T05:51:22;8.30;99.90
1461;DHT22;724;49.910;12.530;2023-10-31T05:53:51;8.20;99.90
1461;DHT22;724;49.910;12.530;2023-10-31T05:56:17;8.30;99.90
1461;DHT22;724;49.910;12.530;2023-10-31T05:58:44;8.20;99.90
1461;DHT22;724;49.910;12.530;2023-10-31T06:01:11;8.20;99.90
1461;DHT22;724;49.910;12.530;2023-10-31T06:03:41;8.20;99.90
1461;DHT22;724;49.910;12.530;2023-10-31T06:06:10;8.10;99.90
1461;DHT22;724;49.910;12.530;2023-10-31T06:08:37;8.20;99.90
1461;DHT22;724;49.910;12.530;2023-10-31T06:11:04;8.10;99.90
1461;DHT22;724;49.910;12.530;2023-10-31T06:13:31;8.20;99.90
1461;DHT22;724;49.910;12.530;2023-10-31T06:15:59;8.10;99.90
1461;DHT22;724;49.910;12.530;2023-10-31T06:18:27;8.10;99.90
1461;DHT22;724;49.910;12.530;2023-10-31T06:20:53;8.10;99.90
1461;DHT22;724;49.910;12.530;2023-10-31T06:23:21;8.10;99.90
1461;DHT22;724;49.910;12.530;2023-10-31T06:25:48;8.10;99.90
1461;DHT22;724;49.910;12.530;2023-10-31T06:28:15;8.00;1.00
1461;DHT22;724;49.910;12.530;2023-10-31T06:30:42;8.00;1.00
1461;DHT22;724;49.910;12.530;2023-10-31T06:33:09;8.00;1.00
1461;DHT22;724;49.910;12.530;2023-10-31T06:35:36;8.00;1.00
1461;DHT22;724;49.910;12.530;2023-10-31T06:38:02;7.90;1.00
1461;DHT22;724;49.910;12.530;2023-10-31T06:40:31;7.90;1.00
1461;DHT22;724;49.910;12.530;2023-10-31T06:42:57;7.90;1.00
1461;DHT22;724;49.910;12.530;2023-10-31T06:45:24;8.00;1.00
1461;DHT22;724;49.910;12.530;2023-10-31T06:47:51;8.00;43.30
1461;DHT22;724;49.910;12.530;2023-10-31T06:50:18;8.00;99.90
1461;DHT22;724;49.910;12.530;2023-10-31T06:52:45;8.00;99.90
1461;DHT22;724;49.910;12.530;2023-10-31T06:55:12;8.00;99.90
1461;DHT22;724;49.910;12.530;2023-10-31T06:57:40;8.00;99.90
1461;DHT22;724;49.910;12.530;2023-10-31T07:00:10;7.90;12.20
1461;DHT22;724;49.910;12.530;2023-10-31T07:02:36;7.90;50.70
1461;DHT22;724;49.910;12.530;2023-10-31T07:05:04;7.90;54.10
1461;DHT22;724;49.910;12.530;2023-10-31T07:07:31;7.90;71.80
1461;DHT22;724;49.910;12.530;2023-10-31T07:09:57;7.90;96.40
1461;DHT22;724;49.910;12.530;2023-10-31T07:12:24;8.00;73.70
1461;DHT22;724;49.910;12.530;2023-10-31T07:14:52;8.00;91.90
1461;DHT22;724;49.910;12.530;2023-10-31T07:17:19;8.00;99.90
1461;DHT22;724;49.910;12.530;2023-10-31T07:19:46;7.90;99.90
1461;DHT22;724;49.910;12.530;2023-10-31T07:22:12;8.00;99.90
1461;DHT22;724;49.910;12.530;2023-10-31T07:24:39;8.00;99.90
1461;DHT22;724;49.910;12.530;2023-10-31T07:27:06;7.90;78.80
1461;DHT22;724;49.910;12.530;2023-10-31T07:29:33;7.90;67.30
1461;DHT22;724;49.910;12.530;2023-10-31T07:32:01;8.00;1.00
1461;DHT22;724;49.910;12.530;2023-10-31T07:34:29;8.00;1.00
1461;DHT22;724;49.910;12.530;2023-10-31T07:36:56;8.00;1.00
1461;DHT22;724;49.910;12.530;2023-10-31T07:39:22;8.00;1.00
1461;DHT22;724;49.910;12.530;2023-10-31T07:41:49;8.00;1.00
1461;DHT22;724;49.910;12.530;2023-10-31T07:44:16;7.90;1.00
1461;DHT22;724;49.910;12.530;2023-10-31T07:46:43;7.90;51.70
1461;DHT22;724;49.910;12.530;2023-10-31T07:49:11;7.90;99.90
1461;DHT22;724;49.910;12.530;2023-10-31T07:51:38;7.90;99.90
1461;DHT22;724;49.910;12.530;2023-10-31T07:54:08;7.90;99.90
1461;DHT22;724;49.910;12.530;2023-10-31T07:56:35;7.90;99.90
1461;DHT22;724;49.910;12.530;2023-10-31T07:59:02;8.00;99.90
1461;DHT22;724;49.910;12.530;2023-10-31T08:01:29;8.00;99.90
1461;DHT22;724;49.910;12.530;2023-10-31T08:03:55;7.90;99.90
1461;DHT22;724;49.910;12.530;2023-10-31T08:06:23;8.00;99.90
1461;DHT22;724;49.910;12.530;2023-10-31T08:08:50;7.90;99.90
1461;DHT22;724;49.910;12.530;2023-10-31T08:11:17;7.90;99.90
1461;DHT22;724;49.910;12.530;2023-10-31T08:13:44;8.00;99.90
1461;DHT22;724;49.910;12.530;2023-10-31T08:16:17;8.00;99.90
1461;DHT22;724;49.910;12.530;2023-10-31T08:18:44;8.00;99.90
1461;DHT22;724;49.910;12.530;2023-10-31T08:21:11;7.90;99.90
1461;DHT22;724;49.910;12.530;2023-10-31T08:23:39;8.10;99.90
1461;DHT22;724;49.910;12.530;2023-10-31T08:26:07;8.00;99.90
1461;DHT22;724;49.910;12.530;2023-10-31T08:28:34;8.00;99.90
1461;DHT22;724;49.910;12.530;2023-10-31T08:31:01;8.00;99.90
1461;DHT22;724;49.910;12.530;2023-10-31T08:33:29;7.90;99.90
1461;DHT22;724;49.910;12.530;2023-10-31T08:35:56;7.80;99.90
1461;DHT22;724;49.910;12.530;2023-10-31T08:38:22;7.90;99.90
1461;DHT22;724;49.910;12.530;2023-10-31T08:40:50;8.00;99.90
1461;DHT22;724;49.910;12.530;2023-10-31T08:43:17;8.00;99.90
1461;DHT22;724;49.910;12.530;2023-10-31T08:45:44;8.10;99.90
1461;DHT22;724;49.910;12.530;2023-10-31T08:48:11;8.00;99.90
1461;DHT22;724;49.910;12.530;2023-10-31T08:50:38;8.00;99.90
1461;DHT22;724;49.910;12.530;2023-10-31T08:53:05;8.00;99.90
1461;DHT22;724;49.910;12.530;2023-10-31T08:55:31;8.00;99.90
1461;DHT22;724;49.910;12.530;2023-10-31T08:57:59;8.00;99.90
1461;DHT22;724;49.910;12.530;2023-10-31T09:00:26;8.10;99.90
1461;DHT22;724;49.910;12.530;2023-10-31T09:02:54;8.10;99.90
1461;DHT22;724;49.910;12.530;2023-10-31T09:05:21;8.00;99.90
1461;DHT22;724;49.910;12.530;2023-10-31T09:07:48;8.10;99.90
1461;DHT22;724;49.910;12.530;2023-10-31T09:10:14;8.20;99.90
1461;DHT22;724;49.910;12.530;2023-10-31T09:12:41;8.10;99.90
1461;DHT22;724;49.910;12.530;2023-10-31T09:15:09;8.00;99.90
1461;DHT22;724;49.910;12.530;2023-10-31T09:17:36;8.00;99.90
1461;DHT22;724;49.910;12.530;2023-10-31T09:20:04;8.00;99.90
1461;DHT22;724;49.910;12.530;2023-10-31T09:22:31;8.00;99.90
1461;DHT22;724;49.910;12.530;2023-10-31T09:24:58;8.10;99.90
1461;DHT22;724;49.910;12.530;2023-10-31T09:27:24;8.10;99.90
1461;DHT22;724;49.910;12.530;2023-10-31T09:29:52;8.10;99.90
1461;DHT22;724;49.910;12.530;2023-10-31T09:32:20;8.10;99.90
1461;DHT22;724;49.910;12.530;2023-10-31T09:34:46;8.10;99.90
1461;DHT22;724;49.910;12.530;2023-10-31T09:37:13;8.00;99.90
1461;DHT22;724;49.910;12.530;2023-10-31T09:39:40;8.00;99.90
1461;DHT22;724;49.910;12.530;2023-10-31T09:42:08;7.80;99.90
1461;DHT22;724;49.910;12.530;2023-10-31T09:44:35;7.90;99.90
1461;DHT22;724;49.910;12.530;2023-10-31T09:47:02;7.90;99.90
1461;DHT22;724;49.910;12.530;2023-10-31T09:49:30;7.90;99.90
1461;DHT22;724;49.910;12.530;2023-10-31T09:51:57;8.00;99.90
1461;DHT22;724;49.910;12.530;2023-10-31T09:54:25;8.30;99.90
1461;DHT22;724;49.910;12.530;2023-10-31T09:56:52;8.30;99.90
1461;DHT22;724;49.910;12.530;2023-10-31T09:59:20;8.50;1.00
1461;DHT22;724;49.910;12.530;2023-10-31T10:01:46;8.40;1.00
1461;DHT22;724;49.910;12.530;2023-10-31T10:04:13;8.40;1.00
1461;DHT22;724;49.910;12.530;2023-10-31T10:06:51;8.40;1.00
1461;DHT22;724;49.910;12.530;2023-10-31T10:09:18;8.30;99.90
1461;DHT22;724;49.910;12.530;2023-10-31T10:11:45;8.40;99.90
1461;DHT22;724;49.910;12.530;2023-10-31T10:14:12;8.40;99.90
1461;DHT22;724;49.910;12.530;2023-10-31T10:16:39;8.40;49.50
1461;DHT22;724;49.910;12.530;2023-10-31T10:19:16;8.30;1.00
1461;DHT22;724;49.910;12.530;2023-10-31T10:21:49;8.20;1.00
1461;DHT22;724;49.910;12.530;2023-10-31T10:24:18;8.20;1.00
1461;DHT22;724;49.910;12.530;2023-10-31T10:26:46;8.30;1.00
1461;DHT22;724;49.910;12.530;2023-10-31T10:29:12;8.20;1.00
1461;DHT22;724;49.910;12.530;2023-10-31T10:31:39;8.20;1.00
1461;DHT22;724;49.910;12.530;2023-10-31T10:34:08;8.20;1.00
1461;DHT22;724;49.910;12.530;2023-10-31T10:36:35;8.30;1.00
1461;DHT22;724;49.910;12.530;2023-10-31T10:39:02;8.30;99.90
1461;DHT22;724;49.910;12.530;2023-10-31T10:41:34;8.30;99.90
1461;DHT22;724;49.910;12.530;2023-10-31T10:44:04;8.40;99.90
1461;DHT22;724;49.910;12.530;2023-10-31T10:46:34;8.40;99.90
1461;DHT22;724;49.910;12.530;2023-10-31T10:49:04;8.40;99.90
1461;DHT22;724;49.910;12.530;2023-10-31T10:51:44;8.40;99.90
1461;DHT22;724;49.910;12.530;2023-10-31T10:54:17;8.20;99.90
1461;DHT22;724;49.910;12.530;2023-10-31T10:56:54;8.20;1.00
1461;DHT22;724;49.910;12.530;2023-10-31T10:59:26;8.20;1.00
1461;DHT22;724;49.910;12.530;2023-10-31T11:01:58;8.20;1.00
1461;DHT22;724;49.910;12.530;2023-10-31T11:04:26;8.30;1.00
1461;DHT22;724;49.910;12.530;2023-10-31T11:06:53;8.30;1.00
1461;DHT22;724;49.910;12.530;2023-10-31T11:09:21;8.20;99.90
1461;DHT22;724;49.910;12.530;2023-10-31T11:11:51;8.10;99.90
1461;DHT22;724;49.910;12.530;2023-10-31T11:14:19;8.10;99.90
1461;DHT22;724;49.910;12.530;2023-10-31T11:16:48;8.00;99.90
1461;DHT22;724;49.910;12.530;2023-10-31T11:19:16;8.00;1.00
1461;DHT22;724;49.910;12.530;2023-10-31T11:21:53;8.00;1.00
1461;DHT22;724;49.910;12.530;2023-10-31T11:26:58;7.90;99.90
1461;DHT22;724;49.910;12.530;2023-10-31T11:29:25;8.00;99.90
1461;DHT22;724;49.910;12.530;2023-10-31T11:31:54;8.20;99.90
1461;DHT22;724;49.910;12.530;2023-10-31T11:34:21;8.20;99.90
1461;DHT22;724;49.910;12.530;2023-10-31T11:36:50;8.30;99.90
1461;DHT22;724;49.910;12.530;2023-10-31T11:39:19;8.30;99.90
1461;DHT22;724;49.910;12.530;2023-10-31T11:41:55;8.40;99.90
1461;DHT22;724;49.910;12.530;2023-10-31T11:44:23;8.20;1.00
1461;DHT22;724;49.910;12.530;2023-10-31T11:46:52;8.20;99.90
1461;DHT22;724;49.910;12.530;2023-10-31T11:49:46;8.10;99.90
1461;DHT22;724;49.910;12.530;2023-10-31T11:52:16;8.20;1.00
1461;DHT22;724;49.910;12.530;2023-10-31T11:54:44;8.10;1.00
1461;DHT22;724;49.910;12.530;2023-10-31T11:57:26;8.10;1.00
1461;DHT22;724;49.910;12.530;2023-10-31T11:59:53;8.10;1.00
1461;DHT22;724;49.910;12.530;2023-10-31T12:02:20;8.10;1.00
1461;DHT22;724;49.910;12.530;2023-10-31T12:04:46;8.10;1.00
1461;DHT22;724;49.910;12.530;2023-10-31T12:07:13;8.20;1.00
1461;DHT22;724;49.910;12.530;2023-10-31T12:09:45;8.10;1.00
1461;DHT22;724;49.910;12.530;2023-10-31T12:12:15;8.10;1.00
1461;DHT22;724;49.910;12.530;2023-10-31T12:14:42;8.10;1.00
1461;DHT22;724;49.910;12.530;2023-10-31T12:17:08;8.10;1.00
1461;DHT22;724;49.910;12.530;2023-10-31T12:19:36;8.00;1.00
1461;DHT22;724;49.910;12.530;2023-10-31T12:22:12;8.00;1.00
1461;DHT22;724;49.910;12.530;2023-10-31T12:24:39;7.90;1.00
1461;DHT22;724;49.910;12.530;2023-10-31T12:27:06;7.90;1.00
1461;DHT22;724;49.910;12.530;2023-10-31T12:29:34;8.00;1.00
1461;DHT22;724;49.910;12.530;2023-10-31T12:32:01;8.00;1.00
1461;DHT22;724;49.910;12.530;2023-10-31T12:34:29;8.00;1.00
1461;DHT22;724;49.910;12.530;2023-10-31T12:36:56;8.00;1.00
1461;DHT22;724;49.910;12.530;2023-10-31T12:39:25;8.00;1.00
1461;DHT22;724;49.910;12.530;2023-10-31T12:41:53;8.10;1.00
1461;DHT22;724;49.910;12.530;2023-10-31T12:44:23;7.90;1.00
1461;DHT22;724;49.910;12.530;2023-10-31T12:46:52;8.00;1.00
1461;DHT22;724;49.910;12.530;2023-10-31T12:49:20;8.00;1.00
1461;DHT22;724;49.910;12.530;2023-10-31T12:51:57;7.90;1.00
1461;DHT22;724;49.910;12.530;2023-10-31T12:54:28;7.90;1.00
1461;DHT22;724;49.910;12.530;2023-10-31T12:56:59;8.00;98.10
1461;DHT22;724;49.910;12.530;2023-10-31T12:59:26;7.90;99.30
1461;DHT22;724;49.910;12.530;2023-10-31T13:01:54;7.90;99.90
1461;DHT22;724;49.910;12.530;2023-10-31T13:04:27;7.90;99.90
1461;DHT22;724;49.910;12.530;2023-10-31T13:06:57;7.90;99.90
1461;DHT22;724;49.910;12.530;2023-10-31T13:09:28;7.90;99.90
1461;DHT22;724;49.910;12.530;2023-10-31T13:11:57;7.80;99.90
1461;DHT22;724;49.910;12.530;2023-10-31T13:14:24;7.80;99.90
1461;DHT22;724;49.910;12.530;2023-10-31T13:16:51;7.90;99.90
1461;DHT22;724;49.910;12.530;2023-10-31T13:19:19;7.80;99.90
1461;DHT22;724;49.910;12.530;2023-10-31T13:21:47;7.80;99.90
1461;DHT22;724;49.910;12.530;2023-10-31T13:24:14;7.80;99.90
1461;DHT22;724;49.910;12.530;2023-10-31T13:26:41;7.80;99.90
1461;DHT22;724;49.910;12.530;2023-10-31T13:29:09;7.70;99.90
1461;DHT22;724;49.910;12.530;2023-10-31T13:31:37;7.70;99.90
1461;DHT22;724;49.910;12.530;2023-10-31T13:34:04;7.70;99.90
1461;DHT22;724;49.910;12.530;2023-10-31T13:36:32;7.70;99.90
1461;DHT22;724;49.910;12.530;2023-10-31T13:39:02;7.60;99.90
1461;DHT22;724;49.910;12.530;2023-10-31T13:41:29;7.60;99.90
1461;DHT22;724;49.910;12.530;2023-10-31T13:43:56;7.70;99.90
1461;DHT22;724;49.910;12.530;2023-10-31T13:46:22;7.70;99.90
1461;DHT22;724;49.910;12.530;2023-10-31T13:48:49;7.80;99.90
1461;DHT22;724;49.910;12.530;2023-10-31T13:51:16;7.70;99.90
1461;DHT22;724;49.910;12.530;2023-10-31T13:53:46;7.50;99.90
1461;DHT22;724;49.910;12.530;2023-10-31T13:56:12;7.50;99.90
1461;DHT22;724;49.910;12.530;2023-10-31T13:58:39;7.50;99.90
1461;DHT22;724;49.910;12.530;2023-10-31T14:01:06;7.60;99.90
1461;DHT22;724;49.910;12.530;2023-10-31T14:03:33;7.60;99.90
1461;DHT22;724;49.910;12.530;2023-10-31T14:05:59;7.50;99.90
1461;DHT22;724;49.910;12.530;2023-10-31T14:08:26;7.60;99.90
1461;DHT22;724;49.910;12.530;2023-10-31T14:10:54;7.60;99.90
1461;DHT22;724;49.910;12.530;2023-10-31T14:13:22;7.60;99.90
1461;DHT22;724;49.910;12.530;2023-10-31T14:15:49;7.80;99.90
1461;DHT22;724;49.910;12.530;2023-10-31T14:18:16;7.60;99.90
1461;DHT22;724;49.910;12.530;2023-10-31T14:20:43;7.60;99.90
1461;DHT22;724;49.910;12.530;2023-10-31T14:23:09;7.60;99.90
1461;DHT22;724;49.910;12.530;2023-10-31T14:25:36;7.60;99.90
1461;DHT22;724;49.910;12.530;2023-10-31T14:28:05;7.50;99.90
1461;DHT22;724;49.910;12.530;2023-10-31T14:30:32;7.60;99.90
1461;DHT22;724;49.910;12.530;2023-10-31T14:33:01;7.70;99.90
1461;DHT22;724;49.910;12.530;2023-10-31T14:35:27;7.70;99.90
1461;DHT22;724;49.910;12.530;2023-10-31T14:37:54;7.70;99.90
1461;DHT22;724;49.910;12.530;2023-10-31T14:40:21;7.70;99.90
1461;DHT22;724;49.910;12.530;2023-10-31T14:42:48;7.70;99.90
1461;DHT22;724;49.910;12.530;2023-10-31T14:45:16;7.70;99.90
1461;DHT22;724;49.910;12.530;2023-10-31T14:47:43;7.60;99.90
1461;DHT22;724;49.910;12.530;2023-10-31T14:50:10;7.60;99.90
1461;DHT22;724;49.910;12.530;2023-10-31T14:52:36;7.50;99.90
1461;DHT22;724;49.910;12.530;2023-10-31T14:55:04;7.60;99.90
1461;DHT22;724;49.910;12.530;2023-10-31T14:57:31;7.60;99.90
1461;DHT22;724;49.910;12.530;2023-10-31T14:59:58;7.60;99.90
1461;DHT22;724;49.910;12.530;2023-10-31T15:02:26;7.60;99.90
1461;DHT22;724;49.910;12.530;2023-10-31T15:04:53;7.60;99.90
1461;DHT22;724;49.910;12.530;2023-10-31T15:07:19;7.60;99.90
1461;DHT22;724;49.910;12.530;2023-10-31T15:09:46;7.50;99.90
1461;DHT22;724;49.910;12.530;2023-10-31T15:12:13;7.50;99.90
1461;DHT22;724;49.910;12.530;2023-10-31T15:14:40;7.50;99.90
1461;DHT22;724;49.910;12.530;2023-10-31T15:17:09;7.60;99.90
1461;DHT22;724;49.910;12.530;2023-10-31T15:19:37;7.50;99.90
1461;DHT22;724;49.910;12.530;2023-10-31T15:22:04;7.50;99.90
1461;DHT22;724;49.910;12.530;2023-10-31T15:24:30;7.60;99.90
1461;DHT22;724;49.910;12.530;2023-10-31T15:26:59;7.60;99.90
1461;DHT22;724;49.910;12.530;2023-10-31T15:29:26;7.50;99.90
1461;DHT22;724;49.910;12.530;2023-10-31T15:31:52;7.50;99.90
1461;DHT22;724;49.910;12.530;2023-10-31T15:34:20;7.50;99.90
1461;DHT22;724;49.910;12.530;2023-10-31T15:36:49;7.50;99.90
1461;DHT22;724;49.910;12.530;2023-10-31T15:39:16;7.50;99.90
1461;DHT22;724;49.910;12.530;2023-10-31T15:41:43;7.50;99.90
1461;DHT22;724;49.910;12.530;2023-10-31T15:44:10;7.50;99.90
1461;DHT22;724;49.910;12.530;2023-10-31T15:46:37;7.50;99.90
1461;DHT22;724;49.910;12.530;2023-10-31T15:49:04;7.50;99.90
1461;DHT22;724;49.910;12.530;2023-10-31T15:51:30;7.40;99.90
1461;DHT22;724;49.910;12.530;2023-10-31T15:53:59;7.50;99.90
1461;DHT22;724;49.910;12.530;2023-10-31T15:56:26;7.50;99.90
1461;DHT22;724;49.910;12.530;2023-10-31T15:58:53;7.40;99.90
1461;DHT22;724;49.910;12.530;2023-10-31T16:01:20;7.50;99.90
1461;DHT22;724;49.910;12.530;2023-10-31T16:03:47;7.50;99.90
1461;DHT22;724;49.910;12.530;2023-10-31T16:06:14;7.50;99.90
1461;DHT22;724;49.910;12.530;2023-10-31T16:08:41;7.40;99.90
1461;DHT22;724;49.910;12.530;2023-10-31T16:11:10;7.40;99.90
1461;DHT22;724;49.910;12.530;2023-10-31T16:13:37;7.40;99.90
1461;DHT22;724;49.910;12.530;2023-10-31T16:16:07;7.50;99.90
1461;DHT22;724;49.910;12.530;2023-10-31T16:18:35;7.40;99.90
1461;DHT22;724;49.910;12.530;2023-10-31T16:21:03;7.40;99.90
1461;DHT22;724;49.910;12.530;2023-10-31T16:23:32;7.40;99.90